Time;durP1;ratioP1;P1;durP2;ratioP2;P2;SDS_P1;SDS_P2;PMS_P1;PMS_P2;Temp;Humidity;BMP_temperature;BMP_pressure;BME280_temperature;BME280_humidity;BME280_pressure;Samples;Min_cycle;Max_cycle;Signal;HPM_P1;HPM_P2
2021/01/09 00:00:10;;;;;;;29.40;17.30;;;3.30;90.00;;;;;;5087854;28;20080;-77
2021/01/09 00:02:36;;;;;;;30.83;17.53;;;3.40;90.10;;;;;;5090107;28;20052;-77
2021/01/09 00:05:03;;;;;;;27.37;16.87;;;3.40;90.10;;;;;;5072497;28;20047;-77
2021/01/09 00:07:32;;;;;;;26.07;17.23;;;3.50;90.00;;;;;;5088070;28;20077;-77
2021/01/09 00:09:59;;;;;;;28.87;17.30;;;3.50;90.00;;;;;;5090504;28;20028;-77
2021/01/09 00:12:25;;;;;;;26.70;16.37;;;3.50;89.90;;;;;;5089301;28;20086;-78
2021/01/09 00:14:51;;;;;;;34.60;19.33;;;3.50;89.60;;;;;;5089459;28;20115;-78
2021/01/09 00:17:17;;;;;;;27.73;18.07;;;3.50;89.80;;;;;;5072589;28;20468;-78
2021/01/09 00:19:42;;;;;;;27.60;17.63;;;3.60;89.70;;;;;;5054531;28;20043;-78
2021/01/09 00:22:08;;;;;;;34.30;20.67;;;3.60;90.00;;;;;;5091731;28;20028;-77
2021/01/09 00:24:35;;;;;;;30.60;17.80;;;3.60;90.00;;;;;;5092310;28;20040;-78
2021/01/09 00:27:01;;;;;;;27.20;16.23;;;3.60;89.70;;;;;;5089846;28;20173;-78
2021/01/09 00:29:26;;;;;;;29.90;18.07;;;3.60;89.70;;;;;;5088972;28;20103;-78
2021/01/09 00:31:52;;;;;;;30.93;19.23;;;3.60;89.60;;;;;;5090246;28;20024;-78
2021/01/09 00:34:20;;;;;;;27.10;17.57;;;3.70;89.80;;;;;;5089790;28;20115;-78
2021/01/09 00:36:47;;;;;;;26.53;17.60;;;3.70;89.50;;;;;;5057663;28;20028;-78
2021/01/09 00:39:13;;;;;;;27.90;16.63;;;3.60;89.10;;;;;;5088715;28;20086;-78
2021/01/09 00:41:40;;;;;;;22.80;15.13;;;3.60;89.10;;;;;;5074036;28;20020;-78
2021/01/09 00:44:07;;;;;;;26.20;16.30;;;3.60;89.10;;;;;;5071325;28;20028;-78
2021/01/09 00:46:33;;;;;;;27.23;15.90;;;3.60;89.10;;;;;;5088664;28;20107;-78
2021/01/09 00:48:59;;;;;;;25.67;15.73;;;3.70;89.20;;;;;;5092036;28;20127;-78
2021/01/09 00:51:24;;;;;;;26.37;16.10;;;3.60;89.10;;;;;;5072085;28;20515;-78
2021/01/09 00:53:50;;;;;;;26.17;15.00;;;3.70;89.20;;;;;;5090113;28;20116;-78
2021/01/09 00:56:16;;;;;;;24.83;15.60;;;3.70;89.20;;;;;;5091434;28;20024;-78
2021/01/09 00:58:45;;;;;;;22.23;14.93;;;3.60;88.90;;;;;;5087895;28;20136;-78
2021/01/09 01:01:11;;;;;;;25.07;15.53;;;3.60;88.90;;;;;;5084132;28;20024;-78
2021/01/09 01:03:42;;;;;;;29.20;15.03;;;3.60;89.00;;;;;;5071153;28;20075;-78
2021/01/09 01:06:11;;;;;;;22.27;14.03;;;3.60;88.90;;;;;;5074143;28;20082;-78
2021/01/09 01:08:37;;;;;;;23.27;13.63;;;3.60;88.80;;;;;;5089682;28;20524;-77
2021/01/09 01:11:04;;;;;;;23.13;14.90;;;3.60;88.60;;;;;;5090415;28;20024;-78
2021/01/09 01:13:30;;;;;;;19.00;12.70;;;3.60;88.40;;;;;;5091245;28;20039;-77
2021/01/09 01:15:56;;;;;;;20.73;11.10;;;3.50;88.30;;;;;;5072383;28;20028;-77
2021/01/09 01:18:22;;;;;;;20.20;12.00;;;3.40;88.10;;;;;;5090139;28;20024;-77
2021/01/09 01:20:49;;;;;;;21.63;13.13;;;3.40;88.10;;;;;;5073352;28;20543;-78
2021/01/09 01:23:16;;;;;;;19.40;11.90;;;3.30;88.30;;;;;;5091260;28;20063;-77
2021/01/09 01:25:42;;;;;;;25.07;13.97;;;3.30;88.30;;;;;;5079637;28;20567;-77
2021/01/09 01:28:07;;;;;;;19.33;12.53;;;3.30;88.20;;;;;;5101493;28;20047;-77
2021/01/09 01:30:33;;;;;;;23.43;13.83;;;3.20;88.20;;;;;;5101261;28;21519;-77
2021/01/09 01:32:59;;;;;;;18.27;12.37;;;3.10;88.40;;;;;;5086254;28;20039;-77
2021/01/09 01:35:24;;;;;;;19.80;12.53;;;3.10;88.30;;;;;;5096357;28;20036;-77
2021/01/09 01:37:50;;;;;;;21.80;13.57;;;3.10;88.40;;;;;;5090302;28;20032;-77
2021/01/09 01:40:16;;;;;;;21.53;12.97;;;3.10;88.60;;;;;;5073860;28;20055;-77
2021/01/09 01:42:41;;;;;;;19.10;12.60;;;3.10;88.50;;;;;;5073383;28;20437;-77
2021/01/09 01:45:08;;;;;;;20.23;12.20;;;3.10;88.90;;;;;;5072021;28;20024;-78
2021/01/09 01:47:34;;;;;;;19.63;12.73;;;3.20;88.90;;;;;;5089602;28;20467;-77
2021/01/09 01:50:01;;;;;;;21.10;12.87;;;3.20;88.80;;;;;;5090878;28;20028;-77
2021/01/09 01:52:27;;;;;;;22.93;13.67;;;3.20;88.70;;;;;;5088364;28;20472;-78
2021/01/09 01:54:53;;;;;;;20.97;13.50;;;3.30;88.80;;;;;;5090508;28;20481;-78
2021/01/09 01:57:19;;;;;;;17.63;12.80;;;3.30;88.80;;;;;;5089621;28;20058;-79
2021/01/09 01:59:45;;;;;;;17.67;12.13;;;3.40;88.70;;;;;;5089685;28;20036;-78
2021/01/09 02:02:13;;;;;;;17.43;11.50;;;3.40;88.40;;;;;;5070845;28;20483;-78
2021/01/09 02:04:39;;;;;;;15.70;11.70;;;3.40;88.30;;;;;;5089110;28;20052;-79
2021/01/09 02:07:18;;;;;;;15.73;11.40;;;3.40;88.50;;;;;;5088777;28;20047;-80
2021/01/09 02:09:47;;;;;;;15.43;10.97;;;3.40;88.60;;;;;;5080414;28;20120;-80
2021/01/09 02:12:21;;;;;;;16.37;10.33;;;3.30;88.30;;;;;;5084427;28;20088;-79
2021/01/09 02:14:56;;;;;;;15.37;9.83;;;3.30;88.40;;;;;;5087541;28;20050;-77
2021/01/09 02:17:23;;;;;;;16.37;11.10;;;3.30;88.50;;;;;;5089223;28;20024;-77
2021/01/09 02:19:50;;;;;;;18.43;10.40;;;3.20;88.20;;;;;;5089425;28;20032;-77
2021/01/09 02:22:17;;;;;;;15.80;10.13;;;3.10;88.40;;;;;;5069975;28;20032;-76
2021/01/09 02:24:44;;;;;;;19.13;11.90;;;3.10;88.70;;;;;;5086513;28;20174;-79
2021/01/09 02:27:10;;;;;;;16.50;10.03;;;3.00;88.80;;;;;;5070994;28;20468;-79
2021/01/09 02:29:45;;;;;;;17.27;10.30;;;3.00;89.00;;;;;;5073590;28;20148;-79
2021/01/09 02:32:13;;;;;;;15.23;10.10;;;2.90;88.80;;;;;;5087803;28;20032;-78
2021/01/09 02:34:42;;;;;;;19.43;10.87;;;2.80;89.10;;;;;;5072002;28;20499;-79
2021/01/09 02:37:09;;;;;;;16.07;10.00;;;2.80;89.30;;;;;;5088414;28;20464;-81
2021/01/09 02:39:36;;;;;;;20.70;10.10;;;2.90;89.30;;;;;;5088907;28;20020;-77
2021/01/09 02:42:03;;;;;;;17.07;10.33;;;2.90;89.20;;;;;;5070851;28;20043;-78
2021/01/09 02:44:29;;;;;;;15.93;10.03;;;2.80;89.20;;;;;;5086624;28;20032;-77
2021/01/09 02:46:55;;;;;;;15.47;9.83;;;2.90;89.30;;;;;;5090543;28;20040;-77
2021/01/09 02:49:20;;;;;;;16.10;9.10;;;3.00;88.90;;;;;;5087692;28;20387;-79
2021/01/09 02:51:46;;;;;;;17.33;10.03;;;2.90;88.60;;;;;;5089442;28;20035;-77
2021/01/09 02:54:12;;;;;;;16.20;9.03;;;2.90;88.50;;;;;;5068675;28;20032;-78
2021/01/09 02:56:37;;;;;;;19.07;10.40;;;2.90;88.50;;;;;;5068679;28;20235;-77
2021/01/09 02:59:03;;;;;;;17.60;10.60;;;2.90;88.60;;;;;;5073767;28;20119;-78
2021/01/09 03:01:30;;;;;;;20.23;10.60;;;3.00;88.60;;;;;;5090452;28;20070;-77
2021/01/09 03:03:57;;;;;;;19.27;10.43;;;3.00;88.40;;;;;;5075135;28;20051;-78
2021/01/09 03:06:22;;;;;;;16.97;10.90;;;2.90;88.20;;;;;;5073279;28;20039;-78
2021/01/09 03:08:48;;;;;;;15.03;9.17;;;2.90;88.10;;;;;;5094166;28;20032;-77
2021/01/09 03:11:15;;;;;;;16.23;9.73;;;2.90;88.00;;;;;;5092146;28;20038;-78
2021/01/09 03:13:44;;;;;;;18.97;10.60;;;2.80;87.90;;;;;;5091820;28;20463;-78
2021/01/09 03:16:10;;;;;;;16.33;10.60;;;2.80;87.90;;;;;;5092255;28;20383;-78
2021/01/09 03:18:36;;;;;;;19.37;10.97;;;2.80;88.50;;;;;;5092063;28;20024;-77
2021/01/09 03:21:03;;;;;;;17.53;10.53;;;2.70;88.70;;;;;;5092028;28;20460;-78
2021/01/09 03:23:29;;;;;;;16.60;10.60;;;2.70;88.70;;;;;;5090988;28;20415;-77
2021/01/09 03:25:54;;;;;;;17.10;9.90;;;2.70;88.90;;;;;;5092716;28;20039;-78
2021/01/09 03:28:20;;;;;;;18.60;10.13;;;2.70;88.80;;;;;;5090944;28;20031;-77
2021/01/09 03:30:46;;;;;;;14.67;9.70;;;2.70;88.90;;;;;;5092710;28;20047;-78
2021/01/09 03:33:11;;;;;;;14.63;9.87;;;2.60;88.80;;;;;;5091722;28;20089;-77
2021/01/09 03:35:37;;;;;;;16.53;10.30;;;2.60;89.10;;;;;;5090971;28;20046;-78
2021/01/09 03:38:03;;;;;;;15.43;9.70;;;2.60;89.30;;;;;;5093901;28;20375;-78
2021/01/09 03:40:28;;;;;;;16.33;10.03;;;2.60;89.20;;;;;;5091211;28;20611;-78
2021/01/09 03:42:54;;;;;;;14.13;9.90;;;2.60;89.10;;;;;;5091090;28;20123;-78
2021/01/09 03:45:20;;;;;;;15.77;10.17;;;2.60;89.10;;;;;;5090646;28;20032;-77
2021/01/09 03:47:45;;;;;;;17.50;10.43;;;2.60;89.00;;;;;;5092335;28;20066;-78
2021/01/09 03:50:11;;;;;;;17.00;9.97;;;2.60;88.80;;;;;;5094360;28;20039;-78
2021/01/09 03:52:37;;;;;;;15.27;9.53;;;2.50;88.70;;;;;;5092463;28;20043;-78
2021/01/09 03:55:03;;;;;;;14.10;10.00;;;2.50;88.80;;;;;;5075789;28;20532;-77
2021/01/09 03:57:28;;;;;;;16.33;10.00;;;2.50;88.60;;;;;;5074387;28;20127;-77
2021/01/09 03:59:54;;;;;;;15.83;9.57;;;2.50;88.70;;;;;;5074507;28;20124;-78
2021/01/09 04:02:19;;;;;;;17.83;10.30;;;2.40;88.40;;;;;;5073880;28;20395;-77
2021/01/09 04:04:45;;;;;;;17.03;9.57;;;2.40;88.60;;;;;;5090470;28;20146;-78
2021/01/09 04:07:11;;;;;;;18.87;10.70;;;2.30;88.20;;;;;;5091677;28;20523;-78
2021/01/09 04:09:36;;;;;;;17.40;10.87;;;2.30;88.30;;;;;;5073705;28;20032;-78
2021/01/09 04:12:02;;;;;;;14.63;10.07;;;2.40;89.10;;;;;;5073677;28;20024;-78
2021/01/09 04:14:28;;;;;;;13.60;9.53;;;2.50;89.30;;;;;;5073015;28;20055;-78
2021/01/09 04:16:53;;;;;;;16.53;10.47;;;2.60;89.10;;;;;;5092006;28;20162;-78
2021/01/09 04:19:19;;;;;;;18.47;9.60;;;2.70;88.90;;;;;;5074579;28;20038;-77
2021/01/09 04:21:46;;;;;;;15.87;9.17;;;2.80;88.70;;;;;;5089403;28;20020;-77
2021/01/09 04:24:12;;;;;;;17.20;9.47;;;2.80;88.20;;;;;;5089888;28;20028;-78
2021/01/09 04:26:38;;;;;;;12.87;9.10;;;2.80;87.90;;;;;;5090774;28;20036;-77
2021/01/09 04:29:04;;;;;;;13.10;9.23;;;2.80;87.90;;;;;;5073580;28;20040;-78
2021/01/09 04:31:29;;;;;;;13.07;8.70;;;2.70;87.70;;;;;;5073747;28;20119;-78
2021/01/09 04:33:55;;;;;;;13.73;9.00;;;2.70;87.70;;;;;;5090567;28;20780;-78
2021/01/09 04:36:21;;;;;;;13.13;8.87;;;2.70;87.80;;;;;;5072947;28;20481;-77
2021/01/09 04:38:46;;;;;;;15.57;9.30;;;2.80;88.00;;;;;;5090387;28;20024;-78
2021/01/09 04:41:12;;;;;;;16.77;10.03;;;2.80;88.10;;;;;;5092065;28;20032;-78
2021/01/09 04:43:38;;;;;;;14.63;9.90;;;2.80;88.00;;;;;;5072947;28;20123;-78
2021/01/09 04:46:05;;;;;;;16.93;10.77;;;2.70;88.00;;;;;;5089326;28;20033;-78
2021/01/09 04:48:31;;;;;;;14.80;10.57;;;2.70;88.00;;;;;;5080597;28;20028;-78
2021/01/09 04:50:57;;;;;;;15.53;10.77;;;2.70;88.00;;;;;;5092522;28;20024;-78
2021/01/09 04:53:23;;;;;;;16.40;10.70;;;2.70;88.10;;;;;;5072955;28;20116;-77
2021/01/09 04:55:56;;;;;;;14.47;10.30;;;2.60;88.00;;;;;;5073939;28;20032;-77
2021/01/09 04:58:21;;;;;;;15.80;10.75;;;2.70;88.10;;;;;;5089840;28;20464;-77
2021/01/09 05:00:53;;;;;;;14.77;9.83;;;2.60;88.10;;;;;;5088625;28;20115;-78
2021/01/09 05:03:20;;;;;;;15.00;10.23;;;2.60;88.20;;;;;;5091033;28;20396;-78
2021/01/09 05:05:46;;;;;;;15.33;10.30;;;2.60;88.10;;;;;;5073476;28;20028;-78
2021/01/09 05:08:12;;;;;;;16.57;10.47;;;2.40;88.00;;;;;;5089775;28;20028;-78
2021/01/09 05:10:37;;;;;;;14.37;9.83;;;2.40;88.10;;;;;;5056598;28;20403;-78
2021/01/09 05:13:05;;;;;;;15.13;9.83;;;2.20;88.20;;;;;;5090126;28;20031;-77
2021/01/09 05:15:38;;;;;;;16.70;10.67;;;2.10;88.30;;;;;;5087323;28;20057;-78
2021/01/09 05:18:04;;;;;;;16.83;10.83;;;2.00;88.50;;;;;;5089639;28;20127;-77
2021/01/09 05:20:31;;;;;;;19.40;10.70;;;1.90;88.60;;;;;;5089159;28;20036;-77
2021/01/09 05:22:58;;;;;;;18.40;10.93;;;1.90;89.10;;;;;;5073623;28;20115;-77
2021/01/09 05:25:25;;;;;;;16.47;10.80;;;1.80;89.10;;;;;;5089308;28;20032;-77
2021/01/09 05:27:55;;;;;;;18.83;10.90;;;1.70;89.30;;;;;;5088466;28;20159;-78
2021/01/09 05:30:22;;;;;;;16.43;10.67;;;1.70;89.30;;;;;;5090432;28;20024;-78
2021/01/09 05:32:51;;;;;;;17.03;10.73;;;1.60;89.40;;;;;;5089684;28;20028;-77
2021/01/09 05:35:18;;;;;;;16.87;10.43;;;1.60;89.70;;;;;;5090205;28;20460;-78
2021/01/09 05:37:50;;;;;;;17.70;10.50;;;1.60;89.80;;;;;;5088958;28;20043;-76
2021/01/09 05:40:17;;;;;;;19.20;10.30;;;1.70;90.00;;;;;;5090789;28;20460;-78
2021/01/09 05:42:43;;;;;;;19.93;11.33;;;1.60;89.90;;;;;;5090740;28;20046;-77
2021/01/09 05:45:11;;;;;;;16.57;10.80;;;1.60;90.20;;;;;;5089111;28;20016;-78
2021/01/09 05:47:37;;;;;;;20.80;10.63;;;1.70;90.30;;;;;;5072488;28;20041;-78
2021/01/09 05:50:05;;;;;;;16.40;9.70;;;1.70;90.20;;;;;;5090459;28;20024;-78
2021/01/09 05:52:38;;;;;;;19.73;10.33;;;1.70;90.20;;;;;;5090745;28;20043;-77
2021/01/09 05:55:05;;;;;;;20.43;10.27;;;1.70;90.30;;;;;;5087248;28;20082;-77
2021/01/09 05:57:32;;;;;;;18.90;10.80;;;1.70;90.20;;;;;;5089617;28;20039;-77
2021/01/09 06:00:00;;;;;;;17.13;10.33;;;1.60;90.20;;;;;;5072662;28;20028;-77
2021/01/09 06:02:26;;;;;;;14.47;10.03;;;1.60;90.30;;;;;;5073510;28;20033;-77
2021/01/09 06:04:59;;;;;;;16.13;10.10;;;1.60;90.20;;;;;;5088319;28;20480;-77
2021/01/09 06:07:33;;;;;;;14.48;9.32;;;1.60;90.30;;;;;;5090001;28;20028;-77
2021/01/09 06:10:11;;;;;;;15.17;9.67;;;1.60;90.30;;;;;;5090305;28;20460;-78
2021/01/09 06:12:49;;;;;;;15.27;10.20;;;1.60;90.40;;;;;;5090164;28;20048;-77
2021/01/09 06:15:23;;;;;;;19.07;11.03;;;1.60;90.30;;;;;;5087534;28;20055;-77
2021/01/09 06:17:48;;;;;;;19.20;11.57;;;1.50;90.20;;;;;;5088728;28;20020;-77
2021/01/09 06:20:14;;;;;;;16.97;10.53;;;1.40;90.20;;;;;;5088480;28;20039;-77
2021/01/09 06:22:41;;;;;;;16.13;9.87;;;1.30;90.30;;;;;;5055130;28;20114;-77
2021/01/09 06:25:10;;;;;;;17.23;10.40;;;1.30;90.30;;;;;;5089182;28;20042;-77
2021/01/09 06:27:39;;;;;;;16.30;10.13;;;1.30;90.40;;;;;;5088315;28;20028;-77
2021/01/09 06:30:12;;;;;;;18.67;10.83;;;1.30;90.40;;;;;;5087008;28;20118;-78
2021/01/09 06:32:40;;;;;;;24.05;10.82;;;1.40;90.50;;;;;;5071621;28;20035;-77
2021/01/09 06:35:08;;;;;;;23.20;10.70;;;1.40;90.40;;;;;;5087955;28;20190;-76
2021/01/09 06:37:34;;;;;;;20.83;10.73;;;1.40;90.50;;;;;;5092112;28;20103;-76
2021/01/09 06:40:01;;;;;;;17.00;10.20;;;1.50;90.60;;;;;;5058251;28;20521;-77
2021/01/09 06:42:28;;;;;;;20.63;10.93;;;1.60;90.50;;;;;;5092487;28;20016;-77
2021/01/09 06:44:54;;;;;;;18.23;11.20;;;1.70;90.70;;;;;;5090329;28;20485;-76
2021/01/09 06:47:27;;;;;;;23.43;11.47;;;1.70;90.50;;;;;;5094043;28;20032;-77
2021/01/09 06:49:53;;;;;;;19.83;10.38;;;1.70;90.40;;;;;;5124655;27;20035;-78
2021/01/09 06:52:19;;;;;;;22.60;11.20;;;1.80;90.40;;;;;;5074605;28;20055;-77
2021/01/09 06:54:46;;;;;;;23.33;11.17;;;1.70;90.30;;;;;;5091411;28;20113;-77
2021/01/09 06:57:13;;;;;;;27.30;12.50;;;1.70;90.30;;;;;;5089950;28;20020;-78
2021/01/09 06:59:49;;;;;;;32.37;12.20;;;1.70;90.40;;;;;;5086217;28;20031;-77
2021/01/09 07:02:19;;;;;;;28.73;12.27;;;1.80;90.50;;;;;;5091039;28;20056;-77
2021/01/09 07:04:55;;;;;;;25.60;12.50;;;1.80;90.50;;;;;;5075297;28;20052;-76
2021/01/09 07:07:35;;;;;;;26.23;12.80;;;1.90;90.60;;;;;;5091846;28;20095;-77
2021/01/09 07:10:16;;;;;;;25.83;11.70;;;2.10;90.80;;;;;;5092363;28;20032;-77
2021/01/09 07:12:48;;;;;;;26.57;13.30;;;2.20;90.70;;;;;;5092337;28;20049;-76
2021/01/09 07:15:17;;;;;;;32.03;14.93;;;2.30;90.60;;;;;;5094116;28;20544;-77
2021/01/09 07:17:49;;;;;;;33.30;15.40;;;2.40;90.50;;;;;;5092051;28;20024;-77
2021/01/09 07:20:18;;;;;;;39.15;16.85;;;2.40;90.30;;;;;;5087962;28;20135;-77
2021/01/09 07:22:47;;;;;;;41.33;18.33;;;2.40;90.50;;;;;;5090598;28;20047;-77
2021/01/09 07:25:12;;;;;;;45.00;17.67;;;2.50;90.60;;;;;;5078663;28;20044;-77
2021/01/09 07:27:44;;;;;;;73.63;22.63;;;2.60;90.40;;;;;;5089506;28;20058;-77
2021/01/09 07:30:15;;;;;;;57.97;25.77;;;2.60;90.30;;;;;;5092222;28;20028;-77
2021/01/09 07:32:47;;;;;;;70.27;23.30;;;2.70;90.40;;;;;;5091746;28;20027;-77
2021/01/09 07:35:17;;;;;;;55.30;23.43;;;2.70;90.50;;;;;;5091457;28;20047;-77
2021/01/09 07:37:43;;;;;;;77.63;23.63;;;2.80;90.40;;;;;;5091671;28;20074;-79
2021/01/09 07:40:20;;;;;;;69.53;23.93;;;2.80;90.30;;;;;;5075003;28;20035;-78
2021/01/09 07:42:47;;;;;;;63.80;22.23;;;2.80;90.10;;;;;;5089876;28;20028;-80
2021/01/09 07:45:29;;;;;;;62.83;23.27;;;2.80;90.00;;;;;;5091812;28;20024;-79
2021/01/09 07:47:55;;;;;;;66.60;21.90;;;2.70;90.10;;;;;;5088593;28;20024;-78
2021/01/09 07:50:20;;;;;;;36.40;17.97;;;2.90;90.30;;;;;;5092340;28;20020;-78
2021/01/09 07:52:46;;;;;;;44.90;20.17;;;2.80;89.90;;;;;;5074766;28;20024;-79
2021/01/09 07:55:17;;;;;;;49.23;20.73;;;2.80;89.90;;;;;;5092316;28;20028;-79
2021/01/09 07:57:44;;;;;;;57.70;20.50;;;2.80;89.80;;;;;;5088716;28;20033;-79
2021/01/09 08:00:16;;;;;;;47.57;20.67;;;2.80;89.80;;;;;;5083913;28;20348;-79
2021/01/09 08:02:44;;;;;;;51.57;23.43;;;2.70;89.40;;;;;;5084303;28;20060;-78
2021/01/09 08:05:11;;;;;;;71.93;25.67;;;2.80;89.70;;;;;;5081003;27;20040;-78
2021/01/09 08:07:42;;;;;;;71.63;24.03;;;2.70;89.50;;;;;;5078718;28;20123;-78
2021/01/09 08:10:29;;;;;;;77.20;27.97;;;2.80;89.80;;;;;;5065935;28;20032;-79
2021/01/09 08:13:06;;;;;;;109.17;28.93;;;2.80;89.30;;;;;;5076577;28;20923;-78
2021/01/09 08:15:34;;;;;;;79.20;30.33;;;2.80;89.30;;;;;;5084677;28;20024;-78
2021/01/09 08:18:05;;;;;;;71.57;26.33;;;2.80;89.00;;;;;;5082793;28;20484;-78
2021/01/09 08:20:31;;;;;;;68.90;27.87;;;2.90;89.10;;;;;;5079698;28;20031;-79
2021/01/09 08:22:59;;;;;;;74.40;25.93;;;2.80;88.90;;;;;;5075540;28;20118;-79
2021/01/09 08:25:38;;;;;;;54.63;21.60;;;2.80;88.80;;;;;;5078736;28;20055;-78
2021/01/09 08:28:04;;;;;;;92.80;28.07;;;2.80;88.50;;;;;;5078378;28;20028;-78
2021/01/09 08:30:35;;;;;;;105.20;28.20;;;2.90;88.80;;;;;;5091126;28;20024;-78
2021/01/09 08:33:09;;;;;;;93.27;26.13;;;2.90;89.10;;;;;;5089857;28;20024;-79
2021/01/09 08:35:36;;;;;;;81.80;27.13;;;3.00;89.00;;;;;;5090415;28;20081;-78
2021/01/09 08:38:03;;;;;;;67.90;28.07;;;3.00;88.70;;;;;;5089354;28;20039;-79
2021/01/09 08:40:31;;;;;;;105.43;32.27;;;2.90;88.40;;;;;;5088050;28;20032;-79
2021/01/09 08:42:59;;;;;;;65.23;20.73;;;3.00;88.80;;;;;;5088890;28;20023;-78
2021/01/09 08:45:48;;;;;;;67.73;22.40;;;3.10;88.60;;;;;;5088413;28;20035;-79
2021/01/09 08:48:27;;;;;;;69.40;24.20;;;3.10;88.10;;;;;;5093007;28;20107;-78
2021/01/09 08:51:08;;;;;;;61.77;26.70;;;3.10;88.10;;;;;;5078435;28;20024;-80
2021/01/09 08:53:52;;;;;;;255.53;32.10;;;3.10;88.10;;;;;;5101176;28;20036;-79
2021/01/09 08:56:23;;;;;;;75.90;28.70;;;3.20;88.20;;;;;;5100463;28;20028;-80
2021/01/09 08:58:49;;;;;;;60.77;26.53;;;3.30;88.50;;;;;;5101176;28;20119;-79
2021/01/09 09:01:20;;;;;;;64.10;32.93;;;3.40;88.70;;;;;;5093086;28;20038;-79
2021/01/09 09:03:51;;;;;;;59.60;28.07;;;3.60;89.00;;;;;;5089497;28;20399;-79
2021/01/09 09:06:20;;;;;;;62.97;22.77;;;3.70;88.60;;;;;;5089932;28;20016;-80
2021/01/09 09:08:46;;;;;;;57.47;20.13;;;3.80;88.10;;;;;;5088308;28;21727;-79
2021/01/09 09:11:15;;;;;;;84.03;23.63;;;3.80;87.50;;;;;;5073055;28;20071;-79
2021/01/09 09:13:41;;;;;;;173.00;28.47;;;3.70;87.10;;;;;;5071485;28;20035;-79
2021/01/09 09:16:18;;;;;;;41.50;20.90;;;3.60;87.20;;;;;;5072593;28;20034;-79
2021/01/09 09:18:44;;;;;;;50.53;25.10;;;3.60;86.70;;;;;;5087965;28;20028;-79
2021/01/09 09:21:10;;;;;;;53.97;23.20;;;3.60;87.00;;;;;;5088785;28;20430;-79
2021/01/09 09:23:35;;;;;;;60.57;19.80;;;3.60;87.00;;;;;;5087886;28;20032;-78
2021/01/09 09:26:06;;;;;;;55.63;19.47;;;3.70;86.80;;;;;;5066352;28;20028;-78
2021/01/09 09:28:43;;;;;;;56.20;22.13;;;3.70;86.20;;;;;;5080904;28;20039;-78
2021/01/09 09:31:30;;;;;;;77.33;19.20;;;3.70;86.10;;;;;;5080672;28;20031;-79
2021/01/09 09:34:03;;;;;;;30.17;15.03;;;3.70;86.00;;;;;;5082890;28;20506;-77
2021/01/09 09:36:30;;;;;;;48.20;20.67;;;3.60;85.20;;;;;;5089944;28;20028;-78
2021/01/09 09:38:56;;;;;;;65.20;22.60;;;3.60;85.30;;;;;;5089168;28;20809;-78
2021/01/09 09:41:22;;;;;;;81.20;24.07;;;3.70;85.70;;;;;;5089151;28;20031;-79
2021/01/09 09:43:58;;;;;;;64.73;21.67;;;3.90;86.20;;;;;;5089439;28;20040;-79
2021/01/09 09:46:25;;;;;;;71.20;21.67;;;4.00;85.50;;;;;;5055795;28;20082;-79
2021/01/09 09:48:51;;;;;;;48.13;19.00;;;4.10;85.30;;;;;;5090160;28;20085;-79
2021/01/09 09:51:16;;;;;;;34.77;17.63;;;4.10;84.90;;;;;;5086015;28;20028;-79
2021/01/09 09:53:54;;;;;;;35.30;17.03;;;4.20;84.80;;;;;;5089501;28;20036;-77
2021/01/09 09:56:24;;;;;;;30.57;17.53;;;4.30;84.50;;;;;;5074371;28;20028;-78
2021/01/09 09:59:01;;;;;;;37.07;16.10;;;4.20;84.00;;;;;;5086866;28;20070;-79
2021/01/09 10:01:29;;;;;;;35.27;17.77;;;4.20;83.90;;;;;;5086357;28;20135;-79
2021/01/09 10:03:55;;;;;;;45.37;14.97;;;4.20;84.10;;;;;;5078725;28;20064;-79
2021/01/09 10:06:22;;;;;;;33.37;17.83;;;4.10;83.10;;;;;;5062241;28;20032;-78
2021/01/09 10:08:47;;;;;;;33.40;15.17;;;4.30;84.20;;;;;;5077533;28;20031;-79
2021/01/09 10:11:13;;;;;;;30.90;14.90;;;4.40;83.20;;;;;;5080688;28;20399;-80
2021/01/09 10:13:39;;;;;;;35.67;15.27;;;4.50;83.20;;;;;;5082417;28;20887;-81
2021/01/09 10:16:05;;;;;;;36.27;13.00;;;4.50;82.40;;;;;;5069331;28;20043;-80
2021/01/09 10:18:33;;;;;;;37.57;16.33;;;4.60;82.20;;;;;;5068246;28;20024;-79
2021/01/09 10:20:59;;;;;;;34.50;15.67;;;4.50;82.50;;;;;;5086373;28;20024;-78
2021/01/09 10:23:28;;;;;;;28.50;15.57;;;4.50;82.40;;;;;;5093237;28;20028;-78
2021/01/09 10:25:55;;;;;;;61.47;18.50;;;4.50;82.30;;;;;;5086905;28;20040;-78
2021/01/09 10:28:21;;;;;;;33.23;16.80;;;4.50;82.60;;;;;;5091196;28;20039;-79
2021/01/09 10:30:48;;;;;;;37.83;18.13;;;4.50;82.60;;;;;;5091482;28;20040;-78
2021/01/09 10:33:14;;;;;;;26.83;16.70;;;4.60;82.80;;;;;;5094811;28;20123;-79
2021/01/09 10:35:45;;;;;;;33.07;17.43;;;4.60;82.70;;;;;;5091528;28;20032;-79
2021/01/09 10:38:11;;;;;;;32.87;17.37;;;4.80;82.60;;;;;;5084510;28;20017;-80
2021/01/09 10:40:36;;;;;;;29.93;18.13;;;4.80;82.00;;;;;;5085256;28;20024;-80
2021/01/09 10:43:02;;;;;;;25.00;15.13;;;4.70;81.70;;;;;;5075555;28;20070;-78
2021/01/09 10:45:27;;;;;;;28.43;16.70;;;4.70;81.60;;;;;;5092303;28;20040;-78
2021/01/09 10:47:53;;;;;;;28.77;17.20;;;4.80;82.10;;;;;;5091203;28;20471;-78
2021/01/09 10:50:18;;;;;;;31.93;15.97;;;4.80;82.10;;;;;;5091015;28;20062;-78
2021/01/09 10:52:44;;;;;;;29.30;15.97;;;4.80;82.10;;;;;;5070208;28;20111;-79
2021/01/09 10:55:10;;;;;;;27.63;15.97;;;4.90;82.10;;;;;;5067729;28;20127;-78
2021/01/09 10:57:36;;;;;;;24.30;14.60;;;4.90;81.90;;;;;;5072360;28;20060;-78
2021/01/09 11:00:03;;;;;;;23.07;13.27;;;4.90;81.80;;;;;;5091058;28;20028;-78
2021/01/09 11:02:28;;;;;;;21.77;14.73;;;4.80;81.60;;;;;;5091464;28;20032;-79
2021/01/09 11:04:54;;;;;;;28.57;15.07;;;4.90;81.90;;;;;;5091501;28;20128;-78
2021/01/09 11:07:19;;;;;;;22.50;13.80;;;5.00;81.80;;;;;;5074786;28;20646;-79
2021/01/09 11:09:45;;;;;;;22.13;14.13;;;5.00;81.30;;;;;;5090946;28;20162;-78
2021/01/09 11:12:11;;;;;;;25.80;17.03;;;4.90;80.90;;;;;;5088775;28;20136;-78
2021/01/09 11:14:36;;;;;;;23.37;15.13;;;4.90;81.70;;;;;;5070417;28;20032;-78
2021/01/09 11:17:02;;;;;;;26.57;16.07;;;5.10;82.20;;;;;;5091957;28;20028;-78
2021/01/09 11:19:28;;;;;;;30.30;19.03;;;5.10;82.20;;;;;;5092005;28;20093;-78
2021/01/09 11:22:03;;;;;;;29.83;19.47;;;5.20;82.30;;;;;;5073469;28;20032;-78
2021/01/09 11:24:33;;;;;;;27.87;17.10;;;5.30;82.60;;;;;;5090766;28;20076;-78
2021/01/09 11:27:06;;;;;;;27.73;17.53;;;5.40;81.70;;;;;;5074393;28;20028;-78
2021/01/09 11:29:32;;;;;;;31.80;19.00;;;5.30;80.90;;;;;;5091837;28;20107;-78
2021/01/09 11:32:02;;;;;;;34.67;20.93;;;5.20;80.10;;;;;;5090718;28;20078;-78
2021/01/09 11:34:29;;;;;;;44.77;20.83;;;5.00;79.20;;;;;;5091812;28;20024;-78
2021/01/09 11:36:56;;;;;;;35.93;19.00;;;5.00;80.50;;;;;;5070338;28;20048;-79
2021/01/09 11:39:21;;;;;;;36.47;20.93;;;5.00;80.00;;;;;;5091392;28;20443;-79
2021/01/09 11:41:47;;;;;;;37.57;18.23;;;5.10;80.60;;;;;;5091575;28;20056;-79
2021/01/09 11:44:17;;;;;;;34.10;18.43;;;5.00;79.40;;;;;;5089591;28;20036;-78
2021/01/09 11:46:44;;;;;;;36.00;21.10;;;4.80;79.40;;;;;;5082057;28;20042;-78
2021/01/09 11:49:09;;;;;;;35.87;19.60;;;4.90;80.80;;;;;;5092954;28;20568;-78
2021/01/09 11:51:35;;;;;;;30.93;17.53;;;4.90;81.10;;;;;;5090292;28;20063;-78
2021/01/09 11:54:01;;;;;;;34.20;21.07;;;4.90;80.10;;;;;;5074720;28;20055;-77
2021/01/09 11:56:27;;;;;;;32.90;19.30;;;4.90;81.20;;;;;;5075792;28;20055;-78
2021/01/09 11:58:52;;;;;;;36.63;22.07;;;5.00;81.40;;;;;;5074424;28;20043;-78
2021/01/09 12:01:18;;;;;;;30.80;18.27;;;5.10;82.00;;;;;;5057637;28;20094;-79
2021/01/09 12:03:44;;;;;;;32.23;20.33;;;5.10;81.40;;;;;;5074454;28;20060;-78
2021/01/09 12:06:15;;;;;;;33.70;20.07;;;5.10;81.30;;;;;;5058011;28;20558;-79
2021/01/09 12:08:40;;;;;;;30.43;19.50;;;5.00;81.50;;;;;;5090842;28;20478;-77
2021/01/09 12:11:06;;;;;;;33.33;21.60;;;5.00;81.30;;;;;;5074883;28;20032;-79
2021/01/09 12:13:32;;;;;;;39.03;22.57;;;5.00;81.70;;;;;;5059881;28;20028;-78
2021/01/09 12:15:57;;;;;;;39.67;23.83;;;5.10;81.50;;;;;;5073976;28;20372;-78
2021/01/09 12:18:24;;;;;;;37.93;23.00;;;5.20;81.70;;;;;;5075315;28;20493;-76
2021/01/09 12:20:49;;;;;;;35.93;22.13;;;5.30;81.80;;;;;;5091897;28;20059;-76
2021/01/09 12:23:15;;;;;;;41.27;23.87;;;5.40;81.30;;;;;;5091510;28;20484;-78
2021/01/09 12:25:41;;;;;;;39.40;22.37;;;5.40;81.20;;;;;;5092352;28;20056;-78
2021/01/09 12:28:07;;;;;;;39.20;23.83;;;5.50;80.90;;;;;;5089305;28;20032;-78
2021/01/09 12:30:33;;;;;;;39.50;22.50;;;5.40;80.70;;;;;;5090603;28;20028;-78
2021/01/09 12:32:59;;;;;;;39.47;21.00;;;5.40;80.00;;;;;;5090739;28;20423;-78
2021/01/09 12:35:25;;;;;;;34.10;23.37;;;5.30;78.80;;;;;;5073413;28;20132;-78
2021/01/09 12:37:53;;;;;;;39.87;23.93;;;5.20;79.70;;;;;;5090541;28;20024;-79
2021/01/09 12:40:19;;;;;;;43.00;24.63;;;5.30;80.70;;;;;;5090084;28;20020;-78